Granada, Nicaragua

4:52 PM CST en Julio 29, 2014 (GMT -0600)
Augusto Cesar Sandino (MNMG) Alt 184 ft | 12.14 °N, 86.17 °W | Change Station

Current weather conditions updated 52 minutes ago

Partly Cloudy
Parcialmente nublado
93 ° F
Sensación térmica 102 ° F
N
12
Viento Variable Viento desde NE

Mañana se prevé un día Mucho más frío que hoy.

Hoy
Alta -- | Baja -- ° F
--% Posibilidad de precipitaciones
Ayer
Alta -- | Baja -- ° F
Precip. -- pul
5:30 AM 6:10 PM
Creciente, 8% visible
Presión 29.80 pul
Visibilidad 6.2 Millas
Nubes Baja 2400 ft
Índice de calor 102 ° F
Punto de rocío 73 ° F
Humedad 52%
Precipitaciones 0.00 pul
Espesor de la nieve No disponible.
UV 4 de una escala de 12
Polen No disponible.
Calidad del aire No disponible.
Flu Activity No disponible.
METAR MNMG 292200Z 05010KT 9999 FEW024 34/23 Q1009 A2980 NOSIG

More Conditions Fewer Conditions

Presión 29.80 pul
Visibilidad 6.2 Millas
Nubes Baja 2400 ft
Índice de calor 102 ° F
Punto de rocío 73 ° F
Humedad 52%
Precipitaciones 0.00 pul
Espesor de la nieve No disponible.
UV 4 de una escala de 12
Polen No disponible.
Calidad del aire No disponible.
Flu Activity No disponible.
METAR MNMG 292200Z 05010KT 9999 FEW024 34/23 Q1009 A2980 NOSIG

More Conditions Fewer Conditions

10-Day Weather Forecast

Almanac

Astronomía

Jul. 29, 2014 Salida Puesta
Hora real 5:30 AM CST 6:10 PM CST
Crepúsculo civil 5:07 AM CST 6:32 PM CST
Crepúsculo náutico 4:41 AM CST 6:58 PM CST
Crepúsculo astronómico 4:14 AM CST 7:25 PM CST
Luna 7:31 AM CST 8:01 PM CST
Horas de luz 13h 24m
Horas de luz
12h 39m
Tomorrow will be 0m 28s shorter.
Creciente, 8% of the Moon is Illuminated
Hoy
Creciente
Ago 3
Cuarto creciente
Ago 10
Luna llena
Ago 17
Cuarto menguante
Ago 25
Nueva

Extremos de hoy

Máximos del país Bajas del país

Community

WunderPhotos

Upload Photos

1,738,909 ¡fotos cargadas!

Nearby

Calidad del aire

Not available.

Grosos de nieve

Not available.

Actividad de terremotos

Ciudad Distance Mag. Tiempo y dato
No hay informes recientes de la actividad sísmica.
Magnitud mínima muestra es 2,5.

Temperaturas de aguas costeras

Lugar Temperatura
Sin partes meteorológicos de las estaciones

Estaciones meteorológicas cercanas

No hay estaciones meteorológicas personales en esta zona.